This is the latest recevied weather packets stored in our database for station/object SR5NLK-1. If no packets are shown the sender has not sent any weather packets the latest 10 day(s).
| Time | Temp. | Humidity | Pressure | Rain* | Wind** | Luminosity | Snow |
|---|---|---|---|---|---|---|---|
| 1787823633 | 24.44° C | 46% | 1075.3 hPa | 0 mm | - | - | - |
| 1787823599 | 24.44° C | 46% | 1075.3 hPa | 0 mm | - | - | - |
| 1787823522 | 28.33° C | 43% | 1072.1 hPa | 0 mm | - | - | - |
| 1787823299 | 24.44° C | 47% | 1075.2 hPa | 0 mm | - | - | - |
| 1787823046 | 24.44° C | 47% | 1094.1 hPa | 0 mm | - | - | - |
| 1787822999 | 24.44° C | 47% | 1094.1 hPa | 0 mm | - | - | - |
| 1787822700 | 28.89° C | 43% | 1084.6 hPa | 0 mm | - | - | - |
| 1787822699 | 24.44° C | 48% | 1062.7 hPa | 0 mm | - | - | - |
| 1787822400 | 23.89° C | 48% | 1059.5 hPa | 0 mm | - | - | - |
| 1787822295 | 28.33° C | 44% | 1078.4 hPa | 0 mm | - | - | - |
| 1787822131 | 23.89° C | 48% | 1065.8 hPa | 0 mm | - | - | - |
| 1787822099 | 23.89° C | 48% | 1065.8 hPa | 0 mm | - | - | - |
| 1787821952 | 28.33° C | 43% | 1072.1 hPa | 0 mm | - | - | - |
| 1787821798 | 23.89° C | 47% | 1075.2 hPa | 0 mm | - | - | - |
| 1787821499 | 23.89° C | 47% | 1020.8 hPa | 0 mm | - | - | - |
| 1787821476 | 28.33° C | 43% | 1075.2 hPa | 0 mm | - | - | - |
| 1787821199 | 24.44° C | 46% | 1036.5 hPa | 0 mm | - | - | - |
| 1787821129 | 28.33° C | 44% | 1072.1 hPa | 0 mm | - | - | - |
| 1787820899 | 24.44° C | 46% | 1078.4 hPa | 0 mm | - | - | - |
| 1787820599 | 25° C | 44% | 1078.4 hPa | 0 mm | - | - | - |
| 1787820299 | 25.56° C | 44% | 1056.4 hPa | 0 mm | - | - | - |
| 1787820220 | 28.89° C | 43% | 1020.8 hPa | 0 mm | - | - | - |
| 1787819999 | 26.11° C | 44% | 1081.5 hPa | 0 mm | - | - | - |
| 1787819823 | 28.89° C | 44% | 1027.1 hPa | 0 mm | - | - | - |
| 1787819819 | 26.11° C | 44% | 1059.5 hPa | 0 mm | - | - | - |
* Rain latest hour (hover to see other rain measurements)
** Current wind speed in m/s (hover to see current wind gust speed)